createdAt,value
2022-11-06T00:01:17.531Z,101281.91
2022-11-06T00:03:53.371Z,101280.13
2022-11-06T00:06:44.482Z,101280.06
2022-11-06T00:09:20.333Z,101290.38
2022-11-06T00:11:53.110Z,101290.44
2022-11-06T00:14:25.007Z,101294.78
2022-11-06T00:16:56.916Z,101283.25
2022-11-06T00:19:28.779Z,101284.09
2022-11-06T00:22:00.648Z,101297.16
2022-11-06T00:24:32.532Z,101288.47
2022-11-06T00:27:04.470Z,101279.72
2022-11-06T00:29:36.317Z,101275.25
2022-11-06T00:32:08.771Z,101269.75
2022-11-06T00:34:40.668Z,101276.78
2022-11-06T00:37:12.546Z,101279.34
2022-11-06T00:39:44.411Z,101273.31
2022-11-06T00:42:16.309Z,101275.91
2022-11-06T00:44:48.242Z,101270.50
2022-11-06T00:47:20.157Z,101261.78
2022-11-06T00:49:52.090Z,101260.88
2022-11-06T00:52:23.956Z,101263.47
2022-11-06T00:54:55.797Z,101265.22
2022-11-06T00:57:28.024Z,101256.50
2022-11-06T00:59:59.918Z,101250.22
2022-11-06T01:02:31.933Z,101272.28
2022-11-06T01:05:05.189Z,101266.78
2022-11-06T01:07:37.802Z,101264.28
2022-11-06T01:10:09.951Z,101258.13
2022-11-06T01:12:41.910Z,101254.59
2022-11-06T01:15:13.805Z,101258.09
2022-11-06T01:17:45.674Z,101258.09
2022-11-06T01:20:17.660Z,101253.56
2022-11-06T01:22:49.503Z,101251.72
2022-11-06T01:25:21.879Z,101242.00
2022-11-06T01:27:53.771Z,101249.91
2022-11-06T01:30:25.736Z,101247.28
2022-11-06T01:32:57.639Z,101240.28
2022-11-06T01:35:29.565Z,101243.72
2022-11-06T01:38:01.447Z,101246.25
2022-11-06T01:40:41.914Z,101232.13
2022-11-06T01:43:46.995Z,101222.34
2022-11-06T01:46:21.921Z,101219.19
2022-11-06T01:49:10.392Z,101211.19
2022-11-06T01:51:50.963Z,101219.44
2022-11-06T01:54:25.929Z,101214.00
2022-11-06T01:57:01.442Z,101229.25
2022-11-06T01:59:38.539Z,101218.69
2022-11-06T02:02:11.562Z,101208.88
2022-11-06T02:04:49.808Z,101179.31
2022-11-06T02:07:21.879Z,101206.31
2022-11-06T02:09:53.855Z,101208.09
2022-11-06T02:12:52.229Z,101199.31
2022-11-06T02:15:50.130Z,101198.59
2022-11-06T02:19:06.498Z,101210.81
2022-11-06T02:22:26.012Z,101182.63
2022-11-06T02:25:12.778Z,101189.97
2022-11-06T02:28:03.321Z,101181.34
2022-11-06T02:30:43.341Z,101190.16
2022-11-06T02:33:44.848Z,101181.06
2022-11-06T02:36:29.018Z,101191.97
2022-11-06T02:39:07.565Z,101178.97
2022-11-06T02:41:45.315Z,101173.47
2022-11-06T02:44:26.877Z,101174.53
2022-11-06T02:47:09.264Z,101168.44
2022-11-06T02:50:03.326Z,101179.91
2022-11-06T02:52:58.992Z,101172.03
2022-11-06T02:55:40.789Z,101153.38
2022-11-06T02:58:32.152Z,101169.28
2022-11-06T03:01:22.495Z,101179.00
2022-11-06T03:04:03.757Z,101179.91
2022-11-06T03:06:45.377Z,101185.16
2022-11-06T03:09:27.202Z,101186.00
2022-11-06T03:12:25.573Z,101201.78
2022-11-06T03:15:19.403Z,101204.44
2022-11-06T03:18:08.118Z,101194.00
2022-11-06T03:21:05.013Z,101181.63
2022-11-06T03:23:54.741Z,101174.75
2022-11-06T03:26:38.361Z,101166.72
2022-11-06T03:29:19.993Z,101160.81
2022-11-06T03:32:05.578Z,101152.69
2022-11-06T03:34:54.466Z,101147.44
2022-11-06T03:37:45.234Z,101143.97
2022-11-06T03:40:22.121Z,101147.47
2022-11-06T03:43:00.387Z,101145.75
2022-11-06T03:45:36.168Z,101139.66
2022-11-06T03:48:25.867Z,101129.69
2022-11-06T03:51:09.753Z,101114.09
2022-11-06T03:53:47.468Z,101122.22
2022-11-06T03:56:24.196Z,101116.22
2022-11-06T03:59:01.758Z,101115.31
2022-11-06T04:01:44.311Z,101110.78
2022-11-06T04:04:41.710Z,101105.41
2022-11-06T04:07:23.630Z,101107.19
2022-11-06T04:10:20.554Z,101104.69
2022-11-06T04:13:15.010Z,101096.94
2022-11-06T04:15:53.877Z,101087.06
2022-11-06T04:18:25.761Z,101097.88
2022-11-06T04:21:26.673Z,101074.81
2022-11-06T04:24:52.555Z,101086.34
2022-11-06T04:27:51.766Z,101074.94
2022-11-06T04:30:24.947Z,101076.84
2022-11-06T04:33:14.825Z,101073.41
2022-11-06T04:36:17.822Z,101072.38
2022-11-06T04:39:03.378Z,101075.06
2022-11-06T04:41:55.968Z,101062.88
2022-11-06T04:44:36.405Z,101064.69
2022-11-06T04:47:15.983Z,101060.38
2022-11-06T04:49:52.753Z,101060.38
2022-11-06T04:52:27.522Z,101051.41
2022-11-06T04:54:59.574Z,101057.75
2022-11-06T04:57:31.442Z,101065.75
2022-11-06T05:00:06.579Z,101057.53
2022-11-06T05:02:38.469Z,101067.44
2022-11-06T05:05:10.391Z,101058.66
2022-11-06T05:07:42.270Z,101049.75
2022-11-06T05:10:14.154Z,101056.72
2022-11-06T05:12:48.108Z,101047.72
2022-11-06T05:15:20.050Z,101049.63
2022-11-06T05:17:51.950Z,101050.47
2022-11-06T05:20:23.990Z,101046.81
2022-11-06T05:22:58.619Z,101036.38
2022-11-06T05:25:40.194Z,101036.38
2022-11-06T05:28:12.339Z,101038.94
2022-11-06T05:30:45.976Z,101021.94
2022-11-06T05:33:17.874Z,101035.41
2022-11-06T05:35:50.898Z,101030.28
2022-11-06T05:38:22.924Z,101022.06
2022-11-06T05:40:55.123Z,101040.75
2022-11-06T05:43:27.069Z,101032.78
2022-11-06T05:46:00.555Z,101024.88
2022-11-06T05:48:32.599Z,101032.75
2022-11-06T05:51:07.119Z,101025.59
2022-11-06T05:53:39.031Z,101019.53
2022-11-06T05:56:10.967Z,101017.03
2022-11-06T05:58:42.846Z,101014.47
2022-11-06T06:01:15.134Z,101018.81
2022-11-06T06:03:47.070Z,100999.34
2022-11-06T06:06:20.749Z,101013.47
2022-11-06T06:08:52.639Z,101010.94
2022-11-06T06:11:24.575Z,101018.81
2022-11-06T06:13:56.430Z,101017.13
2022-11-06T06:16:28.726Z,101015.38
2022-11-06T06:19:00.618Z,101001.25
2022-11-06T06:21:32.525Z,101002.94
2022-11-06T06:24:06.313Z,101001.97
2022-11-06T06:26:38.322Z,101002.84
2022-11-06T06:29:10.170Z,100996.72
2022-11-06T06:31:42.093Z,100992.16
2022-11-06T06:34:13.977Z,100983.84
2022-11-06T06:36:53.432Z,100998.03
2022-11-06T06:39:25.345Z,101012.00
2022-11-06T06:41:57.212Z,101001.63
2022-11-06T06:44:29.206Z,101001.63
2022-11-06T06:47:01.128Z,101004.19
2022-11-06T06:49:32.997Z,101001.38
2022-11-06T06:52:05.095Z,101012.13
2022-11-06T06:54:37.134Z,101008.66
2022-11-06T06:57:09.527Z,101007.81
2022-11-06T06:59:41.395Z,100997.38
2022-11-06T07:02:13.519Z,100993.00
2022-11-06T07:04:45.808Z,101005.31
2022-11-06T07:07:17.754Z,100995.59
2022-11-06T07:09:49.980Z,101001.84
2022-11-06T07:12:22.272Z,100994.00
2022-11-06T07:14:54.170Z,101001.13
2022-11-06T07:17:26.042Z,100997.59
2022-11-06T07:19:57.898Z,101000.38
2022-11-06T07:22:36.718Z,100996.03
2022-11-06T07:25:09.641Z,100998.72
2022-11-06T07:27:41.544Z,100998.00
2022-11-06T07:30:13.657Z,101001.53
2022-11-06T07:32:45.601Z,101001.56
2022-11-06T07:35:17.593Z,100998.22
2022-11-06T07:37:49.470Z,101009.72
2022-11-06T07:40:21.398Z,101006.19
2022-11-06T07:42:53.270Z,101002.84
2022-11-06T07:45:25.234Z,100998.63
2022-11-06T07:47:59.193Z,100993.38
2022-11-06T07:50:32.184Z,100974.16
2022-11-06T07:53:04.538Z,100971.72
2022-11-06T07:55:40.961Z,100952.38
2022-11-06T07:58:14.269Z,100970.25
2022-11-06T08:00:51.727Z,100956.28
2022-11-06T08:03:26.155Z,100964.09
2022-11-06T08:06:05.331Z,100981.59
2022-11-06T08:08:37.237Z,100965.81
2022-11-06T08:11:11.928Z,100970.38
2022-11-06T08:13:44.174Z,100964.31
2022-11-06T08:16:16.232Z,100958.91
2022-11-06T08:18:48.155Z,100972.28
2022-11-06T08:21:20.049Z,100965.41
2022-11-06T08:23:52.004Z,100965.56
2022-11-06T08:26:23.954Z,100964.75
2022-11-06T08:28:57.738Z,100953.38
2022-11-06T08:31:29.956Z,100954.41
2022-11-06T08:34:01.945Z,100955.41
2022-11-06T08:36:40.780Z,100941.47
2022-11-06T08:39:13.639Z,100946.88
2022-11-06T08:41:45.519Z,100943.41
2022-11-06T08:44:17.589Z,100939.16
2022-11-06T08:46:52.162Z,100933.97
2022-11-06T08:49:24.295Z,100933.41
2022-11-06T08:51:56.176Z,100926.59
2022-11-06T08:54:28.077Z,100928.56
2022-11-06T08:57:00.650Z,100921.75
2022-11-06T08:59:33.167Z,100914.09
2022-11-06T09:02:05.232Z,100914.38
2022-11-06T09:04:41.248Z,100904.97
2022-11-06T09:07:13.424Z,100910.38
2022-11-06T09:09:45.322Z,100914.03
2022-11-06T09:12:17.210Z,100896.47
2022-11-06T09:14:49.092Z,100897.31
2022-11-06T09:17:23.702Z,100891.28
2022-11-06T09:19:55.741Z,100884.28
2022-11-06T09:22:27.647Z,100883.47
2022-11-06T09:25:04.412Z,100875.88
2022-11-06T09:27:58.497Z,100847.28
2022-11-06T09:30:32.597Z,100855.91
2022-11-06T09:33:09.187Z,100851.53
2022-11-06T09:35:44.201Z,100850.63
2022-11-06T09:38:16.159Z,100847.22
2022-11-06T09:40:59.026Z,100855.38
2022-11-06T09:44:06.441Z,100843.38
2022-11-06T09:46:47.555Z,100836.25
2022-11-06T09:49:44.227Z,100846.75
2022-11-06T09:52:47.802Z,100837.81
2022-11-06T09:55:43.889Z,100852.56
2022-11-06T09:58:24.891Z,100837.25
2022-11-06T10:01:02.599Z,100842.25
2022-11-06T10:03:49.749Z,100839.41
2022-11-06T10:06:25.535Z,100845.66
2022-11-06T10:09:02.684Z,100836.81
2022-11-06T10:12:10.748Z,100827.81
2022-11-06T10:15:19.578Z,100837.50
2022-11-06T10:18:25.159Z,100828.66
2022-11-06T10:21:21.439Z,100825.00
2022-11-06T10:24:11.655Z,100815.25
2022-11-06T10:26:54.007Z,100800.72
2022-11-06T10:29:45.536Z,100812.97
2022-11-06T10:33:04.228Z,100813.53
2022-11-06T10:36:07.951Z,100817.84
2022-11-06T10:38:47.236Z,100812.50
2022-11-06T10:41:31.148Z,100806.44
2022-11-06T10:44:13.784Z,100796.88
2022-11-06T10:47:04.196Z,100788.13
2022-11-06T10:49:47.061Z,100786.47
2022-11-06T10:52:52.996Z,100770.56
2022-11-06T10:56:16.998Z,100770.56
2022-11-06T10:58:54.144Z,100763.59
2022-11-06T11:01:26.300Z,100766.31
2022-11-06T11:03:58.559Z,100744.47
2022-11-06T11:06:30.513Z,100752.59
2022-11-06T11:09:02.528Z,100746.41
2022-11-06T11:11:34.451Z,100732.31
2022-11-06T11:14:06.302Z,100738.50
2022-11-06T11:16:46.381Z,100735.88
2022-11-06T11:19:27.190Z,100738.50
2022-11-06T11:22:15.657Z,100741.91
2022-11-06T11:24:59.560Z,100738.13
2022-11-06T11:27:53.315Z,100728.34
2022-11-06T11:30:26.854Z,100693.75
2022-11-06T11:32:59.526Z,100711.56
2022-11-06T11:35:32.146Z,100707.19
2022-11-06T11:38:14.428Z,100698.31
2022-11-06T11:40:46.873Z,100701.00
2022-11-06T11:43:24.632Z,100687.69
2022-11-06T11:46:08.822Z,100706.03
2022-11-06T11:48:57.534Z,100697.16
2022-11-06T11:51:42.905Z,100695.47
2022-11-06T11:54:14.731Z,100692.06
2022-11-06T11:57:07.913Z,100694.63
2022-11-06T11:59:46.368Z,100683.06
2022-11-06T12:02:29.589Z,100656.59
2022-11-06T12:05:10.843Z,100665.53
2022-11-06T12:07:48.921Z,100655.78
2022-11-06T12:10:39.773Z,100629.09
2022-11-06T12:13:20.948Z,100652.34
2022-11-06T12:16:11.178Z,100658.66
2022-11-06T12:18:51.480Z,100627.94
2022-11-06T12:21:34.776Z,100633.31
2022-11-06T12:24:20.739Z,100620.88
2022-11-06T12:27:04.863Z,100613.91
2022-11-06T12:29:43.795Z,100616.59
2022-11-06T12:32:33.470Z,100616.72
2022-11-06T12:35:37.396Z,100620.19
2022-11-06T12:38:31.948Z,100612.28
2022-11-06T12:41:32.193Z,100614.03
2022-11-06T12:44:10.822Z,100601.75
2022-11-06T12:47:00.856Z,100586.75
2022-11-06T12:50:16.558Z,100617.44
2022-11-06T12:53:32.767Z,100620.09
2022-11-06T12:56:24.242Z,100625.19
2022-11-06T12:59:47.143Z,100620.81
2022-11-06T13:03:04.057Z,100620.81
2022-11-06T13:05:44.405Z,100615.53
2022-11-06T13:08:56.681Z,100618.88
2022-11-06T13:12:03.354Z,100620.69
2022-11-06T13:15:00.452Z,100615.41
2022-11-06T13:18:00.633Z,100591.34
2022-11-06T13:20:59.529Z,100601.88
2022-11-06T13:23:50.325Z,100595.66
2022-11-06T13:27:12.483Z,100614.97
2022-11-06T13:29:45.838Z,100590.09
2022-11-06T13:32:24.825Z,100605.34
2022-11-06T13:34:58.881Z,100602.66
2022-11-06T13:37:45.470Z,100607.78
2022-11-06T13:40:40.619Z,100612.97
2022-11-06T13:43:23.996Z,100599.56
2022-11-06T13:46:23.838Z,100613.63
2022-11-06T13:49:16.707Z,100598.59
2022-11-06T13:51:58.998Z,100600.38
2022-11-06T13:55:20.705Z,100599.16
2022-11-06T13:58:20.057Z,100610.13
2022-11-06T14:01:43.309Z,100614.28
2022-11-06T14:05:08.290Z,100615.00
2022-11-06T14:07:42.827Z,100615.06
2022-11-06T14:10:35.506Z,100610.41
2022-11-06T14:13:08.684Z,100608.66
2022-11-06T14:15:42.065Z,100600.66
2022-11-06T14:18:23.818Z,100608.31
2022-11-06T14:21:47.172Z,100604.50
2022-11-06T14:24:48.561Z,100595.72
2022-11-06T14:27:23.443Z,100588.72
2022-11-06T14:30:17.829Z,100578.88
2022-11-06T14:32:49.995Z,100581.59
2022-11-06T14:35:49.043Z,100565.59
2022-11-06T14:38:35.337Z,100553.22
2022-11-06T14:41:54.229Z,100545.88
2022-11-06T14:44:39.207Z,100557.28
2022-11-06T14:47:36.610Z,100560.59
2022-11-06T14:50:27.545Z,100552.63
2022-11-06T14:53:06.306Z,100540.16
2022-11-06T14:55:42.792Z,100541.06
2022-11-06T14:59:00.669Z,100529.53
2022-11-06T15:01:36.048Z,100535.56
2022-11-06T15:04:21.064Z,100522.94
2022-11-06T15:06:53.403Z,100513.28
2022-11-06T15:09:25.281Z,100518.47
2022-11-06T15:12:08.516Z,100511.25
2022-11-06T15:14:40.354Z,100501.66
2022-11-06T15:17:15.503Z,100504.34
2022-11-06T15:19:59.924Z,100512.06
2022-11-06T15:22:50.320Z,100499.66
2022-11-06T15:25:27.662Z,100502.38
2022-11-06T15:28:17.786Z,100499.53
2022-11-06T15:31:02.441Z,100495.00
2022-11-06T15:34:23.162Z,100486.91
2022-11-06T15:37:09.508Z,100488.78
2022-11-06T15:40:00.594Z,100479.03
2022-11-06T15:42:36.796Z,100493.13
2022-11-06T15:45:15.702Z,100486.00
2022-11-06T15:48:07.111Z,100481.47
2022-11-06T15:50:43.571Z,100470.97
2022-11-06T15:53:18.520Z,100474.34
2022-11-06T15:56:08.855Z,100462.59
2022-11-06T15:58:40.829Z,100450.66
2022-11-06T16:01:13.053Z,100438.25
2022-11-06T16:03:51.205Z,100447.91
2022-11-06T16:06:23.353Z,100434.66
2022-11-06T16:08:57.334Z,100428.34
2022-11-06T16:11:29.627Z,100417.53
2022-11-06T16:14:01.699Z,100408.84
2022-11-06T16:16:46.079Z,100403.66
2022-11-06T16:19:31.903Z,100401.94
2022-11-06T16:22:15.692Z,100406.97
2022-11-06T16:24:58.898Z,100392.91
2022-11-06T16:27:39.206Z,100386.19
2022-11-06T16:30:25.457Z,100387.91
2022-11-06T16:32:57.768Z,100379.81
2022-11-06T16:35:36.360Z,100392.84
2022-11-06T16:38:39.936Z,100383.00
2022-11-06T16:41:11.671Z,100383.88
2022-11-06T16:43:44.363Z,100381.50
2022-11-06T16:46:16.300Z,100392.84
2022-11-06T16:48:48.480Z,100369.78
2022-11-06T16:51:33.918Z,100376.00
2022-11-06T16:54:06.120Z,100376.81
2022-11-06T16:56:38.088Z,100369.84
2022-11-06T16:59:22.514Z,100364.53
2022-11-06T17:01:54.968Z,100365.28
2022-11-06T17:04:31.718Z,100365.28
2022-11-06T17:07:03.958Z,100383.53
2022-11-06T17:09:36.357Z,100387.84
2022-11-06T17:12:10.904Z,100375.28
2022-11-06T17:14:44.836Z,100403.72
2022-11-06T17:17:25.984Z,100396.44
2022-11-06T17:19:57.865Z,100383.25
2022-11-06T17:22:30.281Z,100376.34
2022-11-06T17:25:02.200Z,100389.53
2022-11-06T17:27:34.141Z,100375.53
2022-11-06T17:30:07.914Z,100377.31
2022-11-06T17:32:39.828Z,100385.22
2022-11-06T17:35:11.752Z,100370.25
2022-11-06T17:37:43.679Z,100372.06
2022-11-06T17:40:15.597Z,100369.38
2022-11-06T17:42:47.483Z,100374.78
2022-11-06T17:45:19.412Z,100383.47
2022-11-06T17:47:51.444Z,100386.84
2022-11-06T17:50:23.826Z,100359.97
2022-11-06T17:52:55.830Z,100390.22
2022-11-06T17:55:27.719Z,100396.25
2022-11-06T17:57:59.627Z,100388.41
2022-11-06T18:00:31.556Z,100386.78
2022-11-06T18:03:03.943Z,100388.63
2022-11-06T18:05:41.486Z,100369.13
2022-11-06T18:08:15.211Z,100380.53
2022-11-06T18:10:55.263Z,100388.50
2022-11-06T18:13:27.292Z,100383.38
2022-11-06T18:15:59.643Z,100374.72
2022-11-06T18:18:31.559Z,100370.44
2022-11-06T18:21:04.317Z,100373.84
2022-11-06T18:23:37.654Z,100364.13
2022-11-06T18:26:09.648Z,100339.38
2022-11-06T18:28:41.607Z,100351.03
2022-11-06T18:31:13.722Z,100358.97
2022-11-06T18:33:46.003Z,100351.22
2022-11-06T18:36:17.915Z,100359.09
2022-11-06T18:38:49.856Z,100371.34
2022-11-06T18:41:22.611Z,100356.47
2022-11-06T18:43:58.303Z,100367.00
2022-11-06T18:46:30.320Z,100372.22
2022-11-06T18:49:02.484Z,100365.22
2022-11-06T18:51:36.364Z,100384.47
2022-11-06T18:54:11.397Z,100371.25
2022-11-06T18:56:43.351Z,100374.03
2022-11-06T18:59:19.662Z,100375.78
2022-11-06T19:01:53.161Z,100369.69
2022-11-06T19:04:27.851Z,100375.09
2022-11-06T19:06:59.921Z,100383.88
2022-11-06T19:09:31.828Z,100389.13
2022-11-06T19:12:03.917Z,100380.34
2022-11-06T19:14:35.818Z,100389.13
2022-11-06T19:17:07.752Z,100392.66
2022-11-06T19:19:39.757Z,100379.63
2022-11-06T19:22:11.711Z,100379.63
2022-11-06T19:24:43.818Z,100390.13
2022-11-06T19:27:15.714Z,100383.22
2022-11-06T19:29:47.642Z,100385.88
2022-11-06T19:32:19.540Z,100366.38
2022-11-06T19:34:51.461Z,100398.25
2022-11-06T19:37:23.939Z,100385.97
2022-11-06T19:39:55.794Z,100395.75
2022-11-06T19:42:27.681Z,100381.78
2022-11-06T19:45:00.253Z,100394.94
2022-11-06T19:47:34.983Z,100396.81
2022-11-06T19:50:07.783Z,100392.50
2022-11-06T19:52:41.791Z,100404.81
2022-11-06T19:55:26.556Z,100409.28
2022-11-06T19:57:59.166Z,100408.31
2022-11-06T20:00:31.039Z,100396.19
2022-11-06T20:03:03.150Z,100402.56
2022-11-06T20:05:35.250Z,100417.47
2022-11-06T20:08:08.296Z,100417.56
2022-11-06T20:10:41.546Z,100416.81
2022-11-06T20:13:13.883Z,100424.53
2022-11-06T20:15:46.065Z,100415.13
2022-11-06T20:18:17.911Z,100411.63
2022-11-06T20:20:51.427Z,100414.41
2022-11-06T20:23:23.344Z,100416.19
2022-11-06T20:25:55.367Z,100418.00
2022-11-06T20:28:27.891Z,100413.63
2022-11-06T20:31:03.613Z,100415.53
2022-11-06T20:33:36.909Z,100427.81
2022-11-06T20:36:17.447Z,100429.63
2022-11-06T20:38:51.980Z,100427.81
2022-11-06T20:41:24.832Z,100433.16
2022-11-06T20:43:57.150Z,100440.34
2022-11-06T20:46:29.112Z,100435.13
2022-11-06T20:49:00.999Z,100446.50
2022-11-06T20:51:42.942Z,100462.34
2022-11-06T20:54:20.518Z,100454.41
2022-11-06T20:56:52.657Z,100466.84
2022-11-06T20:59:24.867Z,100466.88
2022-11-06T21:01:57.144Z,100468.69
2022-11-06T21:04:29.177Z,100464.31
2022-11-06T21:07:01.126Z,100464.31
2022-11-06T21:09:33.135Z,100457.25
2022-11-06T21:12:06.149Z,100478.50
2022-11-06T21:14:38.107Z,100471.50
2022-11-06T21:17:10.026Z,100479.38
2022-11-06T21:19:41.890Z,100481.16
2022-11-06T21:22:13.844Z,100483.84
2022-11-06T21:24:45.758Z,100488.25
2022-11-06T21:27:17.666Z,100471.50
2022-11-06T21:29:49.605Z,100497.06
2022-11-06T21:32:22.027Z,100491.78
2022-11-06T21:34:53.962Z,100488.31
2022-11-06T21:37:32.876Z,100487.44
2022-11-06T21:40:06.037Z,100505.84
2022-11-06T21:42:37.954Z,100500.66
2022-11-06T21:45:14.699Z,100505.97
2022-11-06T21:47:46.965Z,100523.50
2022-11-06T21:50:29.537Z,100512.22
2022-11-06T21:53:20.236Z,100520.88
2022-11-06T21:56:00.861Z,100520.13
2022-11-06T21:58:32.911Z,100513.97
2022-11-06T22:01:06.573Z,100519.41
2022-11-06T22:03:38.544Z,100531.69
2022-11-06T22:06:14.197Z,100543.94
2022-11-06T22:08:48.593Z,100534.28
2022-11-06T22:11:27.137Z,100530.78
2022-11-06T22:14:03.382Z,100530.78
2022-11-06T22:16:39.569Z,100537.00
2022-11-06T22:19:12.573Z,100526.41
2022-11-06T22:21:44.877Z,100513.06
2022-11-06T22:24:16.795Z,100523.69
2022-11-06T22:26:48.703Z,100535.06
2022-11-06T22:29:20.731Z,100528.94
2022-11-06T22:31:52.838Z,100522.81
2022-11-06T22:34:24.709Z,100529.03
2022-11-06T22:36:56.680Z,100514.03
2022-11-06T22:39:28.733Z,100523.84
2022-11-06T22:42:00.642Z,100520.34
2022-11-06T22:44:34.152Z,100537.91
2022-11-06T22:47:06.296Z,100534.38
2022-11-06T22:49:38.284Z,100540.59
2022-11-06T22:52:10.179Z,100530.97
2022-11-06T22:54:42.077Z,100534.47
2022-11-06T22:57:14.021Z,100533.56
2022-11-06T22:59:45.880Z,100537.91
2022-11-06T23:02:17.843Z,100533.59
2022-11-06T23:04:49.788Z,100539.69
2022-11-06T23:07:21.634Z,100546.75
2022-11-06T23:09:53.543Z,100545.97
2022-11-06T23:12:25.400Z,100555.63
2022-11-06T23:14:58.609Z,100546.09
2022-11-06T23:17:30.543Z,100546.97
2022-11-06T23:20:02.964Z,100562.91
2022-11-06T23:22:37.591Z,100557.50
2022-11-06T23:25:11.380Z,100556.09
2022-11-06T23:27:49.486Z,100561.34
2022-11-06T23:30:22.418Z,100553.28
2022-11-06T23:32:54.321Z,100557.50
2022-11-06T23:35:32.172Z,100553.22
2022-11-06T23:38:04.474Z,100554.13
2022-11-06T23:40:36.402Z,100552.41
2022-11-06T23:43:08.295Z,100556.75
2022-11-06T23:45:49.440Z,100570.00
2022-11-06T23:48:21.361Z,100561.34
2022-11-06T23:50:53.336Z,100568.47
2022-11-06T23:53:25.229Z,100565.94
2022-11-06T23:55:57.108Z,100575.56
2022-11-06T23:58:29.028Z,100575.56
